Garvin, Minnesota
Current Conditions -  °F | °C
As of 12:53 AM on Friday 28 Nov 2014 (Local Time) from KTKC Reporting Station
Overcast Overcast  
Wind Chill: -1°   Ceiling: 8500
Heat Index: 13°   Visibility: 10mi
Dew Point:   Wind: 13mph
Humidity: 76%   Direction: 150°SSE
Pressure: 30.02"   Gusts: NA
Location:  44.21°N, 95.76°W
Report Text: KTKC 280653Z AUTO 15011KT 10SM BKN085 OVC110 M10/M14 A3002 RMK AO2 T11051140
Loading
Personal Weather Stations






























Interactive Weather Map New forecast layout! Learn more

10-Day Weather Forecast

Advertisements
Track Severe Weather on mobile